createdAt,value
2023-03-03T00:01:40.774Z,89.57
2023-03-03T00:04:13.151Z,91.63
2023-03-03T00:06:39.801Z,84.80
2023-03-03T00:09:06.707Z,84.53
2023-03-03T00:11:33.235Z,92.93
2023-03-03T00:13:59.784Z,96.25
2023-03-03T00:16:36.044Z,93.25
2023-03-03T00:19:02.839Z,83.30
2023-03-03T00:21:35.690Z,82.80
2023-03-03T00:24:05.330Z,81.57
2023-03-03T00:26:36.569Z,86.00
2023-03-03T00:29:28.822Z,89.80
2023-03-03T00:31:55.825Z,82.95
2023-03-03T00:34:27.440Z,81.25
2023-03-03T00:36:58.837Z,78.82
2023-03-03T00:39:36.700Z,78.55
2023-03-03T00:42:12.801Z,79.53
2023-03-03T00:44:44.366Z,85.20
2023-03-03T00:47:19.049Z,83.97
2023-03-03T00:49:45.557Z,84.18
2023-03-03T00:52:18.385Z,84.25
2023-03-03T00:54:45.002Z,82.47
2023-03-03T00:57:12.694Z,84.40
2023-03-03T00:59:39.671Z,83.15
2023-03-03T01:02:06.610Z,77.80
2023-03-03T01:04:33.129Z,84.30
2023-03-03T01:06:59.642Z,80.55
2023-03-03T01:09:26.138Z,86.20
2023-03-03T01:11:52.675Z,80.40
2023-03-03T01:14:19.325Z,96.78
2023-03-03T01:16:45.963Z,96.13
2023-03-03T01:19:12.493Z,99.60
2023-03-03T01:21:40.089Z,97.07
2023-03-03T01:24:06.604Z,99.10
2023-03-03T01:26:33.120Z,99.38
2023-03-03T01:28:59.607Z,86.05
2023-03-03T01:31:26.387Z,87.18
2023-03-03T01:33:52.963Z,85.72
2023-03-03T01:36:26.913Z,92.97
2023-03-03T01:38:53.714Z,80.72
2023-03-03T01:41:20.626Z,88.00
2023-03-03T01:43:49.778Z,88.95
2023-03-03T01:46:36.403Z,86.03
2023-03-03T01:49:08.169Z,90.63
2023-03-03T01:51:56.127Z,86.63
2023-03-03T01:54:34.098Z,86.25
2023-03-03T01:57:03.575Z,85.95
2023-03-03T01:59:34.548Z,97.07
2023-03-03T02:04:27.590Z,92.60
2023-03-03T02:07:08.379Z,98.15
2023-03-03T02:09:53.881Z,94.45
2023-03-03T02:12:26.583Z,86.30
2023-03-03T02:14:53.106Z,83.32
2023-03-03T02:17:19.648Z,91.15
2023-03-03T02:20:07.898Z,80.15
2023-03-03T02:22:49.274Z,93.53
2023-03-03T02:25:25.768Z,88.03
2023-03-03T02:27:52.931Z,80.97
2023-03-03T02:30:21.901Z,86.20
2023-03-03T02:32:48.429Z,79.13
2023-03-03T02:35:41.716Z,86.90
2023-03-03T02:38:20.468Z,69.10
2023-03-03T02:41:00.813Z,95.20
2023-03-03T02:43:34.810Z,88.93
2023-03-03T02:46:01.356Z,89.18
2023-03-03T02:48:27.880Z,100.93
2023-03-03T02:50:54.573Z,103.90
2023-03-03T02:53:21.125Z,102.75
2023-03-03T02:55:47.548Z,104.18
2023-03-03T02:58:14.092Z,116.63
2023-03-03T03:00:40.688Z,110.50
2023-03-03T03:03:07.369Z,106.22
2023-03-03T03:05:33.977Z,108.15
2023-03-03T03:08:00.425Z,115.60
2023-03-03T03:10:26.970Z,106.07
2023-03-03T03:12:53.501Z,108.97
2023-03-03T03:15:20.329Z,113.90
2023-03-03T03:17:46.890Z,100.30
2023-03-03T03:20:14.679Z,110.07
2023-03-03T03:22:41.189Z,113.60
2023-03-03T03:25:08.210Z,111.22
2023-03-03T03:27:34.747Z,111.88
2023-03-03T03:30:01.257Z,105.35
2023-03-03T03:32:28.095Z,100.13
2023-03-03T03:34:54.673Z,94.60
2023-03-03T03:37:21.383Z,77.68
2023-03-03T03:39:47.890Z,66.75
2023-03-03T03:42:14.399Z,75.53
2023-03-03T03:44:41.034Z,70.53
2023-03-03T03:47:07.698Z,71.68
2023-03-03T03:49:34.274Z,74.22
2023-03-03T03:52:00.773Z,78.07
2023-03-03T03:54:27.321Z,78.80
2023-03-03T03:56:54.644Z,75.32
2023-03-03T03:59:21.332Z,79.35
2023-03-03T04:01:50.038Z,66.07
2023-03-03T04:04:17.467Z,58.05
2023-03-03T04:06:44.167Z,63.85
2023-03-03T04:09:11.264Z,61.58
2023-03-03T04:11:37.786Z,59.67
2023-03-03T04:14:04.477Z,63.08
2023-03-03T04:16:31.003Z,62.65
2023-03-03T04:18:57.879Z,56.90
2023-03-03T04:21:25.189Z,48.85
2023-03-03T04:23:53.618Z,51.13
2023-03-03T04:26:20.202Z,52.13
2023-03-03T04:28:46.725Z,48.70
2023-03-03T04:31:13.329Z,45.92
2023-03-03T04:33:39.896Z,46.45
2023-03-03T04:36:06.528Z,47.22
2023-03-03T04:38:33.056Z,50.20
2023-03-03T04:40:59.542Z,56.47
2023-03-03T04:43:26.138Z,47.65
2023-03-03T04:45:52.695Z,43.70
2023-03-03T04:48:19.302Z,45.45
2023-03-03T04:50:45.870Z,38.88
2023-03-03T04:53:12.387Z,37.67
2023-03-03T04:55:39.206Z,43.28
2023-03-03T04:58:06.335Z,39.75
2023-03-03T05:00:33.005Z,42.20
2023-03-03T05:02:59.990Z,37.50
2023-03-03T05:07:59.602Z,48.25
2023-03-03T05:10:26.198Z,53.80
2023-03-03T05:12:52.729Z,60.35
2023-03-03T05:15:19.441Z,59.10
2023-03-03T05:17:46.015Z,56.45
2023-03-03T05:20:13.912Z,58.65
2023-03-03T05:22:40.602Z,67.53
2023-03-03T05:25:07.674Z,54.00
2023-03-03T05:27:34.398Z,61.20
2023-03-03T05:30:00.965Z,63.13
2023-03-03T05:32:27.499Z,58.45
2023-03-03T05:34:54.214Z,62.95
2023-03-03T05:37:20.725Z,59.95
2023-03-03T05:39:47.304Z,64.95
2023-03-03T05:42:14.893Z,60.83
2023-03-03T05:44:41.454Z,67.35
2023-03-03T05:47:08.109Z,69.78
2023-03-03T05:49:34.699Z,68.45
2023-03-03T05:52:01.696Z,65.85
2023-03-03T05:54:28.285Z,65.00
2023-03-03T05:56:54.786Z,83.47
2023-03-03T05:59:21.555Z,85.18
2023-03-03T06:01:48.129Z,81.82
2023-03-03T06:04:14.791Z,95.53
2023-03-03T06:06:41.333Z,91.85
2023-03-03T06:09:07.966Z,81.93
2023-03-03T06:11:34.568Z,89.32
2023-03-03T06:14:01.181Z,95.68
2023-03-03T06:16:27.754Z,91.18
2023-03-03T06:18:54.437Z,89.65
2023-03-03T06:21:20.993Z,92.65
2023-03-03T06:23:48.002Z,87.03
2023-03-03T06:26:14.551Z,86.35
2023-03-03T06:28:41.155Z,78.72
2023-03-03T06:31:07.863Z,74.03
2023-03-03T06:33:34.493Z,79.03
2023-03-03T06:36:01.203Z,72.35
2023-03-03T06:38:27.943Z,70.18
2023-03-03T06:40:54.486Z,80.10
2023-03-03T06:43:21.111Z,72.75
2023-03-03T06:45:53.725Z,66.70
2023-03-03T06:48:20.357Z,74.25
2023-03-03T06:50:46.997Z,74.60
2023-03-03T06:53:16.268Z,75.28
2023-03-03T06:55:44.894Z,68.70
2023-03-03T06:58:16.723Z,70.20
2023-03-03T07:00:59.492Z,64.63
2023-03-03T07:03:33.620Z,65.03
2023-03-03T07:06:00.937Z,70.30
2023-03-03T07:08:31.092Z,63.80
2023-03-03T07:11:01.915Z,73.53
2023-03-03T07:13:29.779Z,67.75
2023-03-03T07:15:57.366Z,74.63
2023-03-03T07:18:41.008Z,61.78
2023-03-03T07:21:20.082Z,72.25
2023-03-03T07:23:49.121Z,78.70
2023-03-03T07:26:19.458Z,81.93
2023-03-03T07:29:15.504Z,78.57
2023-03-03T07:31:45.732Z,78.00
2023-03-03T07:34:31.297Z,80.25
2023-03-03T07:37:00.073Z,71.43
2023-03-03T07:39:26.689Z,76.72
2023-03-03T07:41:56.312Z,66.65
2023-03-03T07:44:28.289Z,86.93
2023-03-03T07:46:54.820Z,84.10
2023-03-03T07:49:23.434Z,86.75
2023-03-03T07:51:54.839Z,83.95
2023-03-03T07:54:28.371Z,80.25
2023-03-03T07:57:05.943Z,82.47
2023-03-03T07:59:35.450Z,80.25
2023-03-03T08:02:02.048Z,80.32
2023-03-03T08:04:36.137Z,79.55
2023-03-03T08:07:03.555Z,76.95
2023-03-03T08:09:37.402Z,77.40
2023-03-03T08:12:07.117Z,79.95
2023-03-03T08:14:38.451Z,76.68
2023-03-03T08:17:15.305Z,77.72
2023-03-03T08:19:41.911Z,71.30
2023-03-03T08:22:17.428Z,67.53
2023-03-03T08:24:43.982Z,73.07
2023-03-03T08:27:10.559Z,73.13
2023-03-03T08:29:37.190Z,68.10
2023-03-03T08:32:03.979Z,73.80
2023-03-03T08:34:30.609Z,74.07
2023-03-03T08:36:58.577Z,74.15
2023-03-03T08:39:25.185Z,74.50
2023-03-03T08:41:51.723Z,79.70
2023-03-03T08:44:19.584Z,82.25
2023-03-03T08:46:46.527Z,81.55
2023-03-03T08:49:13.274Z,81.38
2023-03-03T08:51:40.370Z,82.75
2023-03-03T08:54:07.266Z,83.15
2023-03-03T08:56:33.824Z,81.07
2023-03-03T08:59:02.518Z,72.85
2023-03-03T09:01:33.040Z,78.97
2023-03-03T09:03:59.657Z,78.23
2023-03-03T09:06:26.266Z,69.28
2023-03-03T09:08:54.722Z,73.80
2023-03-03T09:11:27.725Z,75.85
2023-03-03T09:14:11.674Z,67.47
2023-03-03T09:16:40.738Z,56.58
2023-03-03T09:19:29.667Z,65.95
2023-03-03T09:21:59.397Z,47.83
2023-03-03T09:24:30.981Z,54.97
2023-03-03T09:26:59.006Z,50.47
2023-03-03T09:29:30.450Z,55.03
2023-03-03T09:32:02.236Z,54.40
2023-03-03T09:34:40.622Z,55.88
2023-03-03T09:37:45.626Z,54.65
2023-03-03T09:40:47.337Z,61.03
2023-03-03T09:43:24.083Z,46.45
2023-03-03T09:45:59.450Z,48.67
2023-03-03T09:48:35.110Z,46.90
2023-03-03T09:51:14.136Z,46.83
2023-03-03T09:54:12.345Z,54.00
2023-03-03T09:56:46.266Z,56.10
2023-03-03T09:59:25.243Z,48.38
2023-03-03T10:01:57.805Z,47.80
2023-03-03T10:04:33.182Z,48.92
2023-03-03T10:07:14.769Z,54.00
2023-03-03T10:10:09.030Z,47.42
2023-03-03T10:13:15.918Z,45.60
2023-03-03T10:15:54.711Z,47.80
2023-03-03T10:18:53.309Z,44.55
2023-03-03T10:21:40.028Z,56.38
2023-03-03T10:24:25.067Z,53.65
2023-03-03T10:27:13.452Z,51.10
2023-03-03T10:29:56.760Z,45.58
2023-03-03T10:33:15.023Z,50.05
2023-03-03T10:36:08.049Z,48.97
2023-03-03T10:38:56.120Z,43.28
2023-03-03T10:41:41.505Z,44.17
2023-03-03T10:44:17.129Z,46.60
2023-03-03T10:46:52.289Z,43.97
2023-03-03T10:49:46.629Z,45.97
2023-03-03T10:52:34.127Z,42.20
2023-03-03T10:55:15.627Z,59.15
2023-03-03T10:57:48.091Z,49.30
2023-03-03T11:00:42.444Z,51.88
2023-03-03T11:03:27.625Z,59.88
2023-03-03T11:06:01.378Z,50.00
2023-03-03T11:08:37.092Z,54.45
2023-03-03T11:11:18.745Z,56.15
2023-03-03T11:14:10.014Z,48.70
2023-03-03T11:20:23.517Z,52.17
2023-03-03T11:23:24.834Z,57.63
2023-03-03T11:28:48.361Z,48.08
2023-03-03T11:31:29.957Z,43.47
2023-03-03T11:34:39.846Z,53.55
2023-03-03T11:37:09.190Z,56.00
2023-03-03T11:39:36.939Z,63.67
2023-03-03T11:42:23.789Z,64.18
2023-03-03T11:44:55.381Z,66.22
2023-03-03T11:47:39.439Z,69.82
2023-03-03T11:50:22.584Z,75.47
2023-03-03T11:53:02.367Z,70.40
2023-03-03T11:55:39.641Z,63.20
2023-03-03T11:58:35.374Z,63.30
2023-03-03T12:01:25.183Z,67.07
2023-03-03T12:04:04.103Z,67.95
2023-03-03T12:06:37.285Z,66.03
2023-03-03T12:09:03.748Z,68.80
2023-03-03T12:11:48.016Z,62.00
2023-03-03T12:14:38.715Z,59.95
2023-03-03T12:17:18.505Z,61.55
2023-03-03T12:20:00.281Z,58.72
2023-03-03T12:23:05.769Z,58.97
2023-03-03T12:26:13.043Z,66.95
2023-03-03T12:29:21.262Z,58.35
2023-03-03T12:32:15.582Z,61.42
2023-03-03T12:34:52.856Z,58.60
2023-03-03T12:37:26.635Z,57.35
2023-03-03T12:40:17.774Z,53.60
2023-03-03T12:45:25.978Z,56.17
2023-03-03T12:48:18.853Z,61.65
2023-03-03T12:51:10.132Z,53.38
2023-03-03T12:54:01.618Z,52.85
2023-03-03T12:56:51.176Z,51.72
2023-03-03T12:59:20.720Z,51.38
2023-03-03T13:01:59.326Z,56.85
2023-03-03T13:04:29.942Z,56.67
2023-03-03T13:07:04.237Z,51.25
2023-03-03T13:09:43.200Z,36.22
2023-03-03T13:12:36.075Z,37.65
2023-03-03T13:15:16.267Z,36.45
2023-03-03T13:17:42.864Z,38.13
2023-03-03T13:20:27.133Z,37.47
2023-03-03T13:23:07.134Z,35.22
2023-03-03T13:25:45.788Z,38.60
2023-03-03T13:28:41.415Z,31.85
2023-03-03T13:31:21.696Z,35.50
2023-03-03T13:33:56.544Z,30.63
2023-03-03T13:36:42.480Z,29.98
2023-03-03T13:39:17.833Z,32.25
2023-03-03T13:41:48.949Z,32.95
2023-03-03T13:44:22.869Z,30.08
2023-03-03T13:46:55.268Z,29.05
2023-03-03T13:49:36.993Z,28.83
2023-03-03T13:52:12.262Z,27.98
2023-03-03T13:54:44.459Z,35.42
2023-03-03T13:57:45.724Z,29.88
2023-03-03T14:03:03.469Z,28.70
2023-03-03T14:05:37.398Z,34.55
2023-03-03T14:08:16.822Z,29.75
2023-03-03T14:10:59.286Z,32.47
2023-03-03T14:13:34.331Z,34.10
2023-03-03T14:16:10.448Z,31.95
2023-03-03T14:18:46.391Z,30.73
2023-03-03T14:21:19.504Z,29.42
2023-03-03T14:23:59.223Z,28.15
2023-03-03T14:26:25.867Z,27.08
2023-03-03T14:29:05.273Z,29.42
2023-03-03T14:31:43.426Z,25.23
2023-03-03T14:34:39.657Z,29.40
2023-03-03T14:37:26.877Z,24.90
2023-03-03T14:40:12.045Z,27.35
2023-03-03T14:42:48.884Z,27.05
2023-03-03T14:45:29.347Z,24.30
2023-03-03T14:47:56.933Z,26.70
2023-03-03T14:50:29.731Z,22.40
2023-03-03T14:53:36.207Z,20.35
2023-03-03T14:56:25.372Z,24.20
2023-03-03T14:59:21.110Z,21.98
2023-03-03T15:01:47.849Z,21.40
2023-03-03T15:04:14.376Z,20.42
2023-03-03T15:06:45.072Z,19.30
2023-03-03T15:09:26.977Z,22.42
2023-03-03T15:11:58.971Z,20.73
2023-03-03T15:14:36.172Z,24.27
2023-03-03T15:17:20.666Z,25.13
2023-03-03T15:20:19.950Z,20.27
2023-03-03T15:22:51.320Z,17.80
2023-03-03T15:25:41.872Z,21.63
2023-03-03T15:28:15.802Z,17.17
2023-03-03T15:30:42.378Z,17.42
2023-03-03T15:33:33.663Z,21.10
2023-03-03T15:36:03.843Z,18.27
2023-03-03T15:38:49.324Z,17.88
2023-03-03T15:41:39.426Z,16.05
2023-03-03T15:44:14.115Z,17.20
2023-03-03T15:47:03.860Z,14.75
2023-03-03T15:50:18.202Z,17.60
2023-03-03T15:53:00.673Z,19.33
2023-03-03T15:55:44.527Z,18.27
2023-03-03T15:58:33.339Z,14.90
2023-03-03T16:01:24.775Z,16.75
2023-03-03T16:04:05.295Z,16.90
2023-03-03T16:06:54.567Z,19.23
2023-03-03T16:09:37.581Z,17.50
2023-03-03T16:12:29.078Z,20.08
2023-03-03T16:15:26.737Z,19.25
2023-03-03T16:17:58.511Z,16.73
2023-03-03T16:20:30.921Z,18.67
2023-03-03T16:23:22.081Z,17.90
2023-03-03T16:28:33.822Z,19.23
2023-03-03T16:31:25.478Z,14.18
2023-03-03T16:34:10.630Z,18.20
2023-03-03T16:37:06.307Z,17.65
2023-03-03T16:39:41.118Z,20.67
2023-03-03T16:42:14.021Z,21.65
2023-03-03T16:44:52.190Z,19.58
2023-03-03T16:47:46.725Z,19.73
2023-03-03T16:50:22.331Z,23.40
2023-03-03T16:52:55.528Z,19.67
2023-03-03T16:55:26.596Z,24.92
2023-03-03T17:00:48.355Z,19.55
2023-03-03T17:03:40.933Z,20.85
2023-03-03T17:06:20.214Z,23.40
2023-03-03T17:09:31.539Z,22.20
2023-03-03T17:12:05.053Z,17.85
2023-03-03T17:15:05.570Z,22.35
2023-03-03T17:18:13.112Z,20.13
2023-03-03T17:20:49.723Z,22.45
2023-03-03T17:23:27.516Z,22.38
2023-03-03T17:26:03.154Z,27.48
2023-03-03T17:28:35.583Z,23.83
2023-03-03T17:31:13.995Z,29.67
2023-03-03T17:33:55.380Z,22.70
2023-03-03T17:37:07.105Z,25.15
2023-03-03T17:39:57.975Z,24.05
2023-03-03T17:42:39.667Z,19.55
2023-03-03T17:45:13.164Z,26.73
2023-03-03T17:48:13.507Z,29.60
2023-03-03T17:51:21.557Z,23.00
2023-03-03T17:54:23.282Z,32.95
2023-03-03T17:57:17.871Z,30.25
2023-03-03T18:00:03.959Z,32.25
2023-03-03T18:02:39.849Z,32.55
2023-03-03T18:05:25.819Z,29.52
2023-03-03T18:08:02.520Z,30.35
2023-03-03T18:10:38.135Z,28.65
2023-03-03T18:13:22.501Z,34.40
2023-03-03T18:16:12.373Z,38.35
2023-03-03T18:18:57.279Z,35.70
2023-03-03T18:21:44.420Z,35.80
2023-03-03T18:24:25.637Z,36.85
2023-03-03T18:29:22.702Z,48.55
2023-03-03T18:32:11.100Z,42.78
2023-03-03T18:34:41.608Z,40.00
2023-03-03T18:37:29.615Z,41.58
2023-03-03T18:40:02.185Z,41.10
2023-03-03T18:42:39.589Z,47.03
2023-03-03T18:45:18.321Z,45.17
2023-03-03T18:48:13.002Z,42.78
2023-03-03T18:50:44.640Z,44.13
2023-03-03T18:53:11.117Z,43.22
2023-03-03T18:55:43.057Z,46.90
2023-03-03T18:58:15.369Z,48.72
2023-03-03T19:00:45.664Z,44.60
2023-03-03T19:03:31.871Z,47.03
2023-03-03T19:06:00.072Z,42.75
2023-03-03T19:08:44.975Z,48.72
2023-03-03T19:11:44.936Z,48.97
2023-03-03T19:14:27.929Z,53.35
2023-03-03T19:16:55.918Z,47.55
2023-03-03T19:19:34.436Z,51.03
2023-03-03T19:22:23.541Z,49.00
2023-03-03T19:25:17.911Z,48.90
2023-03-03T19:28:05.840Z,50.90
2023-03-03T19:30:57.935Z,46.53
2023-03-03T19:33:40.720Z,43.28
2023-03-03T19:36:40.995Z,52.03
2023-03-03T19:39:46.455Z,48.88
2023-03-03T19:42:23.463Z,44.22
2023-03-03T19:45:14.943Z,46.13
2023-03-03T19:47:50.757Z,51.13
2023-03-03T19:50:26.363Z,50.25
2023-03-03T19:53:13.170Z,48.38
2023-03-03T19:55:54.568Z,47.42
2023-03-03T19:58:27.867Z,48.33
2023-03-03T20:01:03.264Z,52.40
2023-03-03T20:04:12.153Z,48.67
2023-03-03T20:07:10.882Z,49.58
2023-03-03T20:10:04.828Z,56.97
2023-03-03T20:12:53.142Z,51.83
2023-03-03T20:15:31.043Z,53.45
2023-03-03T20:18:25.470Z,52.33
2023-03-03T20:21:00.576Z,48.83
2023-03-03T20:24:12.162Z,50.35
2023-03-03T20:26:57.464Z,44.80
2023-03-03T20:29:33.239Z,50.78
2023-03-03T20:32:19.381Z,49.80
2023-03-03T20:34:55.682Z,50.83
2023-03-03T20:37:31.404Z,49.50
2023-03-03T20:40:22.916Z,44.08
2023-03-03T20:43:06.389Z,42.03
2023-03-03T20:45:47.729Z,47.35
2023-03-03T20:48:26.334Z,51.05
2023-03-03T20:51:01.293Z,48.22
2023-03-03T20:53:36.552Z,46.15
2023-03-03T20:56:14.099Z,46.85
2023-03-03T20:58:54.138Z,42.67
2023-03-03T21:01:44.129Z,48.20
2023-03-03T21:04:38.327Z,54.22
2023-03-03T21:07:05.673Z,42.22
2023-03-03T21:09:34.479Z,35.15
2023-03-03T21:12:03.120Z,42.33
2023-03-03T21:14:37.643Z,37.92
2023-03-03T21:17:27.447Z,36.03
2023-03-03T21:19:54.066Z,34.88
2023-03-03T21:22:20.622Z,29.35
2023-03-03T21:24:53.894Z,39.67
2023-03-03T21:27:25.979Z,30.73
2023-03-03T21:30:16.459Z,36.47
2023-03-03T21:32:44.801Z,33.08
2023-03-03T21:35:14.362Z,38.13
2023-03-03T21:37:50.289Z,38.00
2023-03-03T21:40:25.193Z,27.58
2023-03-03T21:42:53.887Z,28.08
2023-03-03T21:45:20.853Z,29.63
2023-03-03T21:47:48.192Z,27.60
2023-03-03T21:50:15.074Z,24.63
2023-03-03T21:52:41.634Z,19.77
2023-03-03T21:55:09.195Z,20.58
2023-03-03T21:57:35.920Z,21.80
2023-03-03T22:00:04.468Z,16.73
2023-03-03T22:02:31.100Z,14.20
2023-03-03T22:04:57.695Z,11.57
2023-03-03T22:07:24.247Z,12.82
2023-03-03T22:09:50.786Z,10.70
2023-03-03T22:12:17.472Z,12.18
2023-03-03T22:14:44.002Z,14.05
2023-03-03T22:17:10.832Z,8.40
2023-03-03T22:19:38.329Z,12.80
2023-03-03T22:22:05.260Z,4.78
2023-03-03T22:24:31.991Z,9.23
2023-03-03T22:26:58.667Z,8.68
2023-03-03T22:29:25.303Z,7.75
2023-03-03T22:31:52.115Z,10.00
2023-03-03T22:34:19.097Z,8.75
2023-03-03T22:36:45.702Z,6.95
2023-03-03T22:39:12.222Z,8.38
2023-03-03T22:41:38.812Z,5.45
2023-03-03T22:44:05.539Z,11.77
2023-03-03T22:46:32.197Z,5.75
2023-03-03T22:48:58.697Z,9.23
2023-03-03T22:51:26.182Z,8.32
2023-03-03T22:53:53.194Z,8.13
2023-03-03T22:56:19.918Z,11.73
2023-03-03T22:58:46.610Z,6.18
2023-03-03T23:01:13.120Z,8.50
2023-03-03T23:03:39.836Z,10.80
2023-03-03T23:06:06.664Z,10.27
2023-03-03T23:08:33.201Z,8.50
2023-03-03T23:10:59.757Z,10.82
2023-03-03T23:13:27.126Z,11.48
2023-03-03T23:15:53.784Z,16.65
2023-03-03T23:18:20.384Z,9.68
2023-03-03T23:20:46.932Z,11.68
2023-03-03T23:23:16.539Z,7.20
2023-03-03T23:25:43.078Z,14.30
2023-03-03T23:28:09.718Z,9.95
2023-03-03T23:30:36.212Z,11.57
2023-03-03T23:33:02.788Z,10.63
2023-03-03T23:35:29.341Z,9.48
2023-03-03T23:37:55.964Z,21.00
2023-03-03T23:40:22.577Z,23.48
2023-03-03T23:42:49.177Z,11.45
2023-03-03T23:45:16.383Z,12.70
2023-03-03T23:47:42.937Z,12.63
2023-03-03T23:50:11.263Z,17.60
2023-03-03T23:52:37.982Z,9.55
2023-03-03T23:55:05.769Z,10.30
2023-03-03T23:57:32.351Z,16.10
2023-03-03T23:59:58.922Z,19.42
